Time;durP1;ratioP1;P1;durP2;ratioP2;P2;SDS_P1;SDS_P2;PMS_P1;PMS_P2;Temp;Humidity;BMP_temperature;BMP_pressure;BME280_temperature;BME280_humidity;BME280_pressure;Samples;Min_cycle;Max_cycle;Signal;HPM_P1;HPM_P2
2023/05/03 00:00:41;;;;;;;3.90;1.92;;;;;;;11.75;50.88;100965.06;1749582;82;21047;-57
2023/05/03 00:03:10;;;;;;;6.97;1.80;;;;;;;11.79;50.55;100963.33;1749511;80;21004;-57
2023/05/03 00:05:38;;;;;;;6.28;1.77;;;;;;;11.86;50.40;100962.37;1749645;82;21008;-57
2023/05/03 00:08:07;;;;;;;4.30;1.87;;;;;;;11.92;49.79;100964.87;1749549;82;21430;-58
2023/05/03 00:10:37;;;;;;;3.25;1.60;;;;;;;11.97;49.84;100960.50;1744446;81;21040;-58
2023/05/03 00:13:06;;;;;;;6.78;1.65;;;;;;;12.03;49.22;100963.00;1744147;81;21008;-58
2023/05/03 00:15:35;;;;;;;10.18;2.30;;;;;;;12.11;48.98;100964.77;1743921;81;21076;-57
2023/05/03 00:18:06;;;;;;;7.58;2.42;;;;;;;12.16;48.38;100962.30;1745067;81;21036;-58
2023/05/03 00:20:35;;;;;;;4.85;2.10;;;;;;;12.29;47.30;100967.41;1745980;81;21036;-58
2023/05/03 00:23:03;;;;;;;2.75;1.62;;;;;;;12.43;46.79;100967.05;1744577;81;21052;-59
2023/05/03 00:25:34;;;;;;;6.37;2.00;;;;;;;12.54;46.72;100965.68;1744306;82;21095;-58
2023/05/03 00:28:04;;;;;;;6.53;2.30;;;;;;;12.61;46.52;100966.59;1744254;81;21071;-58
2023/05/03 00:30:34;;;;;;;4.78;1.95;;;;;;;12.68;45.98;100966.98;1744084;81;21052;-57
2023/05/03 00:33:03;;;;;;;6.17;2.12;;;;;;;12.77;45.69;100969.06;1743912;81;21448;-58
2023/05/03 00:35:32;;;;;;;3.05;2.17;;;;;;;12.84;45.50;100963.63;1743848;82;21474;-57
2023/05/03 00:38:01;;;;;;;3.50;2.12;;;;;;;12.90;44.84;100959.55;1744088;82;21060;-58
2023/05/03 00:40:30;;;;;;;5.00;2.17;;;;;;;12.98;44.68;100962.16;1743894;81;21012;-58
2023/05/03 00:42:58;;;;;;;3.45;1.50;;;;;;;13.05;44.44;100949.00;1743786;82;21080;-57
2023/05/03 00:45:28;;;;;;;5.90;1.60;;;;;;;13.12;44.21;100955.41;1743901;81;21048;-58
2023/05/03 00:47:57;;;;;;;6.83;1.42;;;;;;;13.16;44.03;100953.95;1743935;82;21020;-56
2023/05/03 00:50:28;;;;;;;2.67;1.40;;;;;;;13.21;43.87;100948.73;1744041;82;21452;-56
2023/05/03 00:52:57;;;;;;;3.90;1.70;;;;;;;13.26;43.92;100950.34;1743786;81;21006;-57
2023/05/03 00:55:28;;;;;;;5.97;1.50;;;;;;;13.27;43.76;100950.67;1744101;82;21475;-57
2023/05/03 00:57:56;;;;;;;4.55;1.70;;;;;;;13.29;43.78;100949.95;1743931;82;21027;-59
2023/05/03 01:00:25;;;;;;;3.10;1.55;;;;;;;13.30;43.79;100953.88;1744047;82;21468;-57
2023/05/03 01:02:54;;;;;;;3.55;1.20;;;;;;;13.33;43.81;100940.23;1743972;81;21476;-58
2023/05/03 01:05:26;;;;;;;4.87;1.52;;;;;;;13.36;43.83;100949.45;1744087;81;21032;-57
2023/05/03 01:08:14;;;;;;;4.20;1.42;;;;;;;13.36;43.81;100947.23;1743975;82;21526;-57
2023/05/03 01:10:59;;;;;;;5.37;1.80;;;;;;;13.37;43.87;100948.41;1754080;81;21502;-58
2023/05/03 01:13:58;;;;;;;6.47;1.82;;;;;;;13.39;43.92;100949.58;1756939;82;21015;-58
2023/05/03 01:16:49;;;;;;;7.17;1.55;;;;;;;13.39;44.03;100946.30;1757302;81;21035;-58
2023/05/03 01:19:41;;;;;;;5.42;1.70;;;;;;;13.38;44.11;100945.13;1740446;82;20996;-56
2023/05/03 01:22:37;;;;;;;5.78;1.72;;;;;;;13.36;44.11;100942.58;1757159;81;21019;-57
2023/05/03 01:25:11;;;;;;;9.38;1.75;;;;;;;13.35;44.17;100936.75;1756900;80;21501;-57
2023/05/03 01:27:40;;;;;;;7.78;1.85;;;;;;;13.35;44.20;100934.00;1757180;81;21019;-56
2023/05/03 01:30:11;;;;;;;8.70;1.75;;;;;;;13.33;44.19;100926.47;1756750;82;21019;-57
2023/05/03 01:33:08;;;;;;;5.20;1.70;;;;;;;13.32;44.19;100928.89;1756955;81;21093;-58
2023/05/03 01:35:47;;;;;;;7.70;1.47;;;;;;;13.29;44.25;100924.65;1740643;82;21479;-57
2023/05/03 01:38:16;;;;;;;3.90;1.30;;;;;;;13.29;44.24;100927.92;1757430;81;21513;-57
2023/05/03 01:40:51;;;;;;;7.67;1.50;;;;;;;13.27;44.29;100924.00;1757362;81;20996;-57
2023/05/03 01:43:20;;;;;;;4.80;1.70;;;;;;;13.26;44.31;100922.30;1757119;82;21016;-58
2023/05/03 01:45:49;;;;;;;4.67;1.60;;;;;;;13.25;44.32;100921.98;1757203;82;21026;-58
2023/05/03 01:48:18;;;;;;;7.70;1.55;;;;;;;13.21;44.46;100923.44;1757169;80;21443;-58
2023/05/03 01:50:47;;;;;;;5.45;1.62;;;;;;;13.18;44.54;100916.96;1757217;81;21071;-59
2023/05/03 01:53:16;;;;;;;3.00;1.50;;;;;;;13.15;44.57;100909.60;1756772;82;21062;-58
2023/05/03 01:55:44;;;;;;;5.45;1.62;;;;;;;13.12;44.59;100916.89;1757269;82;21039;-58
2023/05/03 01:58:13;;;;;;;6.15;1.70;;;;;;;13.10;44.71;100910.73;1757296;81;21043;-57
2023/05/03 02:00:49;;;;;;;3.08;1.55;;;;;;;13.07;44.83;100905.64;1757523;81;20992;-57
2023/05/03 02:03:15;;;;;;;2.67;1.22;;;;;;;13.05;44.85;100919.59;1757281;80;21024;-57
2023/05/03 02:05:47;;;;;;;4.42;1.50;;;;;;;13.04;44.88;100917.05;1757131;82;21039;-57
2023/05/03 02:08:16;;;;;;;4.12;1.30;;;;;;;13.01;44.99;100908.14;1740651;82;21023;-57
2023/05/03 02:10:46;;;;;;;4.65;1.40;;;;;;;12.99;45.06;100918.99;1747880;81;21487;-57
2023/05/03 02:13:16;;;;;;;3.33;1.45;;;;;;;12.96;45.15;100921.62;1744022;82;21012;-56
2023/05/03 02:15:45;;;;;;;3.60;1.30;;;;;;;12.93;45.27;100923.92;1743879;82;21048;-58
2023/05/03 02:18:16;;;;;;;5.78;1.62;;;;;;;12.90;45.35;100921.05;1743939;81;21013;-58
2023/05/03 02:20:45;;;;;;;7.15;1.40;;;;;;;12.85;45.47;100929.05;1733396;82;21055;-57
2023/05/03 02:23:15;;;;;;;5.83;1.50;;;;;;;12.80;45.61;100935.67;1743900;81;20988;-57
2023/05/03 02:25:44;;;;;;;4.83;1.50;;;;;;;12.78;45.79;100935.55;1744002;81;21060;-57
2023/05/03 02:28:13;;;;;;;4.60;1.30;;;;;;;12.75;45.94;100946.94;1744000;81;21032;-57
2023/05/03 02:30:42;;;;;;;3.72;1.30;;;;;;;12.70;46.01;100948.38;1744111;82;21087;-57
2023/05/03 02:33:11;;;;;;;3.92;1.60;;;;;;;12.65;46.17;100944.01;1744157;82;21063;-57
2023/05/03 02:35:40;;;;;;;3.87;1.42;;;;;;;12.63;46.36;100941.13;1744089;82;21436;-58
2023/05/03 02:38:09;;;;;;;7.10;1.40;;;;;;;12.61;46.43;100944.59;1743940;82;20988;-58
2023/05/03 02:40:38;;;;;;;5.55;1.60;;;;;;;12.59;46.54;100941.20;1744319;81;21048;-57
2023/05/03 02:43:06;;;;;;;4.33;1.62;;;;;;;12.57;46.61;100943.30;1743846;82;21021;-58
2023/05/03 02:45:35;;;;;;;3.83;1.57;;;;;;;12.55;46.71;100941.27;1744019;82;21467;-56
2023/05/03 02:48:05;;;;;;;3.40;1.52;;;;;;;12.54;46.75;100940.94;1743930;82;21020;-56
2023/05/03 02:50:34;;;;;;;3.30;1.40;;;;;;;12.49;47.01;100942.91;1743873;82;21047;-58
2023/05/03 02:53:03;;;;;;;2.60;1.40;;;;;;;12.47;47.14;100946.38;1743846;81;21095;-57
2023/05/03 02:55:32;;;;;;;4.45;1.52;;;;;;;12.45;47.38;100938.00;1744146;82;21064;-57
2023/05/03 02:58:03;;;;;;;8.08;1.57;;;;;;;12.46;47.39;100934.20;1743851;82;21039;-58
2023/05/03 03:00:33;;;;;;;3.62;1.55;;;;;;;12.44;47.46;100934.92;1743903;82;21063;-58
2023/05/03 03:03:02;;;;;;;7.03;1.42;;;;;;;12.43;47.55;100935.45;1743876;82;21047;-57
2023/05/03 03:05:32;;;;;;;3.47;1.50;;;;;;;12.42;47.54;100936.50;1733669;82;21471;-58
2023/05/03 03:08:01;;;;;;;4.90;1.50;;;;;;;12.41;47.58;100932.05;1744076;81;21499;-58
2023/05/03 03:10:30;;;;;;;3.92;1.60;;;;;;;12.42;47.58;100928.25;1743849;81;21008;-58
2023/05/03 03:12:59;;;;;;;4.33;1.47;;;;;;;12.44;47.68;100929.43;1744142;81;21475;-58
2023/05/03 03:15:30;;;;;;;3.70;1.50;;;;;;;12.45;47.93;100934.73;1744045;81;21044;-58
2023/05/03 03:17:59;;;;;;;5.80;1.98;;;;;;;12.45;47.90;100933.36;1744130;81;21065;-57
2023/05/03 03:20:27;;;;;;;8.05;1.80;;;;;;;12.47;47.86;100935.91;1744100;82;21005;-58
2023/05/03 03:22:56;;;;;;;4.22;1.70;;;;;;;12.48;47.78;100936.23;1743926;82;21059;-57
2023/05/03 03:25:25;;;;;;;3.98;1.60;;;;;;;12.49;47.93;100933.28;1744009;82;20980;-58
2023/05/03 03:27:56;;;;;;;5.58;1.37;;;;;;;12.51;47.97;100935.84;1743854;82;21069;-59
2023/05/03 03:30:26;;;;;;;3.75;1.55;;;;;;;12.52;47.88;100928.77;1744133;82;21071;-57
2023/05/03 03:32:57;;;;;;;7.20;1.85;;;;;;;12.54;47.96;100934.07;1743750;81;21521;-57
2023/05/03 03:35:28;;;;;;;4.50;1.40;;;;;;;12.56;47.84;100937.47;1743921;81;21059;-58
2023/05/03 03:37:57;;;;;;;3.10;1.30;;;;;;;12.56;47.79;100930.59;1744099;82;21068;-58
2023/05/03 03:40:26;;;;;;;4.78;1.55;;;;;;;12.58;47.87;100937.60;1744219;81;21428;-57
2023/05/03 03:42:56;;;;;;;4.50;1.67;;;;;;;12.61;47.83;100933.08;1744138;81;21020;-57
2023/05/03 03:45:26;;;;;;;5.35;1.87;;;;;;;12.65;47.82;100933.53;1744139;82;21059;-58
2023/05/03 03:47:56;;;;;;;7.40;1.90;;;;;;;12.68;47.73;100937.27;1743815;82;21479;-57
2023/05/03 03:50:25;;;;;;;6.17;2.10;;;;;;;12.70;47.72;100934.64;1744001;82;20973;-57
2023/05/03 03:52:55;;;;;;;8.05;1.65;;;;;;;12.70;47.63;100938.77;1744181;81;21002;-58
2023/05/03 03:55:24;;;;;;;8.10;1.98;;;;;;;12.72;47.61;100938.56;1744328;82;21452;-58
2023/05/03 03:57:54;;;;;;;4.30;1.60;;;;;;;12.75;47.62;100941.44;1744589;81;21028;-57
2023/05/03 04:00:26;;;;;;;8.30;1.85;;;;;;;12.77;47.49;100940.19;1745258;82;21012;-57
2023/05/03 04:02:57;;;;;;;7.50;1.95;;;;;;;12.81;47.41;100939.27;1734467;82;21044;-56
2023/05/03 04:05:26;;;;;;;4.40;1.60;;;;;;;12.82;47.41;100945.95;1744209;82;21040;-56
2023/05/03 04:07:55;;;;;;;3.85;1.80;;;;;;;12.86;47.38;100939.52;1744054;82;21476;-57
2023/05/03 04:10:26;;;;;;;6.03;1.72;;;;;;;12.88;47.31;100939.65;1747519;82;21932;-57
2023/05/03 04:12:55;;;;;;;7.35;1.80;;;;;;;12.93;47.15;100940.42;1757072;82;21051;-57
2023/05/03 04:15:24;;;;;;;4.67;1.60;;;;;;;12.95;47.19;100943.30;1757210;81;21011;-57
2023/05/03 04:17:54;;;;;;;6.67;1.90;;;;;;;13.00;46.95;100949.58;1757307;82;21023;-58
2023/05/03 04:20:22;;;;;;;6.12;1.70;;;;;;;13.01;46.69;100943.91;1757213;82;21043;-56
2023/05/03 04:22:53;;;;;;;5.97;1.80;;;;;;;13.04;46.73;100952.81;1757183;81;21023;-56
2023/05/03 04:25:24;;;;;;;11.20;2.55;;;;;;;13.05;46.60;100947.62;1740129;82;21039;-58
2023/05/03 04:27:55;;;;;;;8.43;1.70;;;;;;;13.06;46.50;100956.21;1756872;81;21424;-58
2023/05/03 04:30:24;;;;;;;6.47;1.70;;;;;;;13.09;46.18;100952.53;1757413;81;21067;-57
2023/05/03 04:32:57;;;;;;;8.30;1.90;;;;;;;13.13;46.04;100955.73;1757085;82;21443;-57
2023/05/03 04:35:25;;;;;;;8.40;1.95;;;;;;;13.15;46.01;100949.50;1757323;82;21439;-57
2023/05/03 04:37:54;;;;;;;8.80;2.10;;;;;;;13.20;46.08;100956.66;1757191;82;21499;-57
2023/05/03 04:40:24;;;;;;;6.75;2.20;;;;;;;13.24;45.92;100968.44;1757161;81;20995;-57
2023/05/03 04:42:56;;;;;;;8.83;1.90;;;;;;;13.28;45.91;100963.38;1756678;81;21464;-58
2023/05/03 04:45:26;;;;;;;6.05;2.10;;;;;;;13.33;45.78;100959.50;1757099;82;20980;-58
2023/05/03 04:47:55;;;;;;;9.75;2.00;;;;;;;13.38;45.61;100968.00;1757355;82;21027;-58
2023/05/03 04:50:23;;;;;;;4.90;2.12;;;;;;;13.44;45.70;100963.06;1757087;80;21004;-58
2023/05/03 04:52:52;;;;;;;6.12;1.85;;;;;;;13.51;45.75;100961.72;1757173;81;21027;-56
2023/05/03 04:55:21;;;;;;;7.58;1.82;;;;;;;13.56;45.70;100958.68;1757328;80;21047;-57
2023/05/03 04:57:54;;;;;;;4.65;1.55;;;;;;;13.63;45.63;100956.81;1757103;82;20984;-57
2023/05/03 05:00:24;;;;;;;9.70;1.67;;;;;;;13.71;45.54;100965.45;1757332;81;21427;-59
2023/05/03 05:02:56;;;;;;;3.77;1.72;;;;;;;13.77;45.38;100959.13;1757185;80;20980;-57
2023/05/03 05:05:27;;;;;;;7.00;2.02;;;;;;;13.86;45.36;100963.94;1757155;82;21066;-58
2023/05/03 05:07:55;;;;;;;8.13;2.30;;;;;;;13.93;45.34;100958.77;1757195;81;21447;-56
2023/05/03 05:10:28;;;;;;;7.62;1.90;;;;;;;14.01;45.26;100963.78;1755267;82;21119;-57
2023/05/03 05:12:58;;;;;;;7.28;2.00;;;;;;;14.08;45.07;100964.12;1743750;81;21480;-58
2023/05/03 05:15:29;;;;;;;5.08;1.80;;;;;;;14.15;44.91;100970.50;1743837;81;21396;-62
2023/05/03 05:17:59;;;;;;;7.33;2.42;;;;;;;14.23;44.64;100968.09;1743934;81;21024;-59
2023/05/03 05:20:28;;;;;;;11.33;2.35;;;;;;;14.32;44.28;100968.78;1743824;82;21522;-58
2023/05/03 05:22:58;;;;;;;7.00;2.27;;;;;;;14.45;44.13;100964.70;1743911;81;21428;-58
2023/05/03 05:25:28;;;;;;;9.90;2.55;;;;;;;14.58;43.70;100973.00;1744088;81;21013;-59
2023/05/03 05:27:58;;;;;;;14.38;3.00;;;;;;;14.67;43.29;100960.70;1743912;82;21040;-57
2023/05/03 05:30:30;;;;;;;15.05;3.20;;;;;;;14.71;43.05;100973.54;1743751;81;21023;-58
2023/05/03 05:33:00;;;;;;;16.55;3.90;;;;;;;14.73;42.81;100965.38;1743779;81;21020;-58
2023/05/03 05:35:30;;;;;;;22.58;3.50;;;;;;;14.73;42.68;100961.23;1743770;81;21048;-59
2023/05/03 05:37:59;;;;;;;14.07;3.25;;;;;;;14.73;42.63;100968.13;1743679;81;21024;-58
2023/05/03 05:40:28;;;;;;;15.93;3.27;;;;;;;14.70;42.63;100960.28;1743791;82;21017;-56
2023/05/03 05:42:57;;;;;;;15.08;3.30;;;;;;;14.69;42.60;100957.20;1743655;82;20984;-57
2023/05/03 05:45:27;;;;;;;14.73;3.45;;;;;;;14.71;42.55;100963.36;1743934;82;21451;-58
2023/05/03 05:47:57;;;;;;;18.62;3.62;;;;;;;14.70;42.78;100956.14;1744016;82;21039;-57
2023/05/03 05:50:27;;;;;;;20.00;3.15;;;;;;;14.72;42.93;100959.54;1743905;82;21428;-57
2023/05/03 05:52:57;;;;;;;8.98;2.47;;;;;;;14.75;42.57;100951.38;1743337;81;20985;-58
2023/05/03 05:55:28;;;;;;;6.80;1.95;;;;;;;14.77;42.48;100946.48;1744017;81;21466;-57
2023/05/03 05:57:57;;;;;;;11.22;2.05;;;;;;;14.80;42.15;100948.30;1743839;81;21064;-57
2023/05/03 06:00:29;;;;;;;5.17;1.72;;;;;;;14.84;41.94;100949.56;1743546;81;21064;-56
2023/05/03 06:02:57;;;;;;;8.88;2.30;;;;;;;14.90;41.80;100947.87;1743914;81;21071;-57
2023/05/03 06:05:27;;;;;;;11.50;2.60;;;;;;;14.97;41.49;100945.98;1743962;81;21012;-60
2023/05/03 06:07:56;;;;;;;12.82;2.20;;;;;;;15.02;41.52;100935.69;1743769;82;21114;-57
2023/05/03 06:10:25;;;;;;;5.00;1.70;;;;;;;15.06;40.96;100943.33;1743903;82;21459;-57
2023/05/03 06:12:56;;;;;;;9.20;1.55;;;;;;;15.12;40.81;100941.63;1743851;81;21090;-58
2023/05/03 06:15:26;;;;;;;6.00;1.67;;;;;;;15.18;40.31;100940.77;1743885;81;21063;-58
2023/05/03 06:17:55;;;;;;;9.33;1.52;;;;;;;15.24;40.31;100931.62;1744035;81;21008;-57
2023/05/03 06:20:25;;;;;;;4.95;1.67;;;;;;;15.30;40.37;100929.38;1744104;81;21040;-58
2023/05/03 06:22:55;;;;;;;7.25;1.40;;;;;;;15.39;40.40;100934.98;1744121;81;21071;-58
2023/05/03 06:25:24;;;;;;;6.37;1.50;;;;;;;15.62;39.79;100929.56;1744177;82;21075;-57
2023/05/03 06:27:53;;;;;;;12.73;2.22;;;;;;;16.10;38.89;100928.06;1744048;82;22005;-57
2023/05/03 06:30:24;;;;;;;42.78;4.42;;;;;;;16.60;37.38;100928.72;1743784;81;21012;-58
2023/05/03 06:32:53;;;;;;;3.35;1.20;;;;;;;17.15;36.08;100928.41;1744043;82;21019;-60
2023/05/03 06:35:22;;;;;;;5.62;1.20;;;;;;;17.67;35.38;100924.81;1743937;82;21463;-58
2023/05/03 06:37:51;;;;;;;3.98;1.50;;;;;;;18.13;33.74;100921.97;1744188;81;21024;-59
2023/05/03 06:40:24;;;;;;;9.73;1.22;;;;;;;18.44;33.18;100907.87;1743814;82;21099;-57
2023/05/03 06:42:52;;;;;;;4.47;1.60;;;;;;;18.73;32.62;100913.64;1743971;82;21020;-58
2023/05/03 06:45:22;;;;;;;8.73;1.40;;;;;;;19.06;32.23;100908.38;1743403;81;21497;-58
2023/05/03 06:47:51;;;;;;;4.00;1.47;;;;;;;19.44;31.33;100914.83;1743932;82;20992;-58
2023/05/03 06:50:21;;;;;;;6.97;1.30;;;;;;;19.70;30.72;100916.29;1744218;82;21412;-58
2023/05/03 06:52:50;;;;;;;4.30;1.40;;;;;;;19.91;30.06;100915.63;1744108;81;21440;-56
2023/05/03 06:55:19;;;;;;;3.33;1.42;;;;;;;20.05;30.24;100903.66;1743779;81;21008;-57
2023/05/03 06:57:48;;;;;;;3.62;1.37;;;;;;;20.25;30.28;100897.13;1743802;82;20989;-58
2023/05/03 07:00:17;;;;;;;7.35;1.40;;;;;;;20.53;29.66;100899.06;1743927;81;21060;-57
2023/05/03 07:02:46;;;;;;;4.65;1.50;;;;;;;20.88;28.46;100911.94;1743982;82;21055;-58
2023/05/03 07:05:15;;;;;;;5.35;1.62;;;;;;;21.16;28.29;100915.16;1743879;81;21479;-58
2023/05/03 07:07:47;;;;;;;8.18;1.55;;;;;;;21.39;27.69;100912.75;1744173;81;21459;-60
2023/05/03 07:10:16;;;;;;;9.53;2.25;;;;;;;21.57;27.40;100902.72;1744129;82;21012;-58
2023/05/03 07:12:46;;;;;;;10.00;2.30;;;;;;;21.65;27.62;100892.51;1748263;81;21435;-58
2023/05/03 07:15:14;;;;;;;8.93;1.62;;;;;;;21.81;27.51;100893.55;1749388;82;21084;-59
2023/05/03 07:17:46;;;;;;;10.30;1.85;;;;;;;21.93;26.10;100901.78;1749886;81;21455;-59
2023/05/03 07:20:15;;;;;;;5.10;1.70;;;;;;;21.98;25.25;100898.50;1749433;82;21008;-58
2023/05/03 07:22:44;;;;;;;9.13;1.47;;;;;;;21.92;25.13;100900.09;1749303;82;21448;-58
2023/05/03 07:25:16;;;;;;;4.05;1.20;;;;;;;21.84;25.22;100886.89;1749711;81;21106;-58
2023/05/03 07:27:44;;;;;;;8.10;1.77;;;;;;;21.77;25.20;100887.64;1749720;80;21436;-57
2023/05/03 07:30:14;;;;;;;5.50;1.55;;;;;;;21.70;25.25;100878.63;1749407;81;21543;-58
2023/05/03 07:32:43;;;;;;;7.90;1.45;;;;;;;21.66;24.74;100891.41;1749622;81;21098;-58
2023/05/03 07:35:15;;;;;;;9.13;1.30;;;;;;;21.60;23.63;100891.05;1749596;81;21004;-60
2023/05/03 07:37:44;;;;;;;3.70;1.35;;;;;;;21.48;23.64;100895.36;1749685;82;21036;-59
2023/05/03 07:40:13;;;;;;;5.17;1.65;;;;;;;21.40;23.75;100901.34;1750073;81;21055;-59
2023/05/03 07:42:43;;;;;;;5.72;1.62;;;;;;;21.32;24.00;100892.58;1749801;81;21087;-59
2023/05/03 07:45:15;;;;;;;4.70;1.27;;;;;;;21.29;23.64;100886.97;1751369;81;21086;-59
2023/05/03 07:47:43;;;;;;;2.87;1.25;;;;;;;21.31;24.06;100885.31;1751826;82;21904;-58
2023/05/03 07:50:12;;;;;;;4.03;1.40;;;;;;;21.41;23.96;100880.73;1750374;82;21032;-58
2023/05/03 07:52:42;;;;;;;4.83;1.40;;;;;;;21.57;24.12;100877.63;1750120;80;21567;-59
2023/05/03 07:55:12;;;;;;;5.53;1.30;;;;;;;21.76;23.98;100883.17;1753832;80;21001;-60
2023/05/03 07:57:44;;;;;;;5.12;1.50;;;;;;;21.94;24.14;100874.16;1752628;80;21038;-59
2023/05/03 08:00:14;;;;;;;7.62;2.08;;;;;;;22.13;24.21;100868.58;1746605;80;20999;-59
2023/05/03 08:02:43;;;;;;;6.33;1.57;;;;;;;22.28;24.05;100867.90;1778009;80;21493;-60
2023/05/03 08:05:13;;;;;;;6.55;1.37;;;;;;;22.37;24.04;100867.16;1751832;80;21045;-59
2023/05/03 08:07:44;;;;;;;4.65;1.30;;;;;;;22.49;24.29;100864.75;1749165;82;21013;-58
2023/05/03 08:10:13;;;;;;;7.28;2.00;;;;;;;22.66;24.53;100864.06;1749416;82;21061;-59
2023/05/03 08:12:42;;;;;;;9.60;2.30;;;;;;;22.81;24.59;100867.59;1763508;81;21510;-59
2023/05/03 08:15:11;;;;;;;4.50;1.80;;;;;;;22.91;24.65;100871.31;1711825;84;21447;-59
2023/05/03 08:17:43;;;;;;;5.00;1.57;;;;;;;23.05;25.09;100877.28;1778146;81;21411;-58
2023/05/03 08:20:12;;;;;;;7.28;1.95;;;;;;;23.14;24.93;100862.23;1778241;81;20996;-59
2023/05/03 08:22:41;;;;;;;5.35;1.92;;;;;;;23.21;25.03;100869.28;1711743;84;21432;-59
2023/05/03 08:25:11;;;;;;;10.58;1.80;;;;;;;23.31;25.42;100865.14;1711781;83;21115;-58
2023/05/03 08:27:39;;;;;;;10.23;4.47;;;;;;;23.50;25.43;100878.14;1711816;84;21063;-58
2023/05/03 08:30:11;;;;;;;6.28;1.80;;;;;;;23.70;25.28;100870.43;1697580;83;21049;-59
2023/05/03 08:32:39;;;;;;;7.05;1.95;;;;;;;23.69;25.09;100877.98;1767312;80;21446;-59
2023/05/03 08:35:09;;;;;;;7.40;1.80;;;;;;;23.64;25.46;100878.52;1767279;81;20995;-58
2023/05/03 08:37:41;;;;;;;8.38;4.28;;;;;;;23.71;25.53;100865.95;1767020;80;21419;-58
2023/05/03 08:40:13;;;;;;;13.32;2.70;;;;;;;23.80;25.36;100882.22;1767159;80;21046;-58
2023/05/03 08:42:45;;;;;;;4.97;1.98;;;;;;;23.83;25.30;100876.08;1767161;80;20995;-59
2023/05/03 08:45:17;;;;;;;6.05;2.02;;;;;;;23.77;25.38;100866.82;1767482;81;20999;-59
2023/05/03 08:47:46;;;;;;;6.62;1.50;;;;;;;23.76;25.54;100865.70;1767046;80;21036;-59
2023/05/03 08:50:15;;;;;;;4.08;1.60;;;;;;;23.78;25.62;100855.91;1767047;80;21066;-59
2023/05/03 08:52:45;;;;;;;10.78;2.62;;;;;;;23.81;25.31;100851.16;1767185;81;21030;-59
2023/05/03 08:55:15;;;;;;;6.05;2.83;;;;;;;23.86;25.58;100855.94;1732387;81;21070;-58
2023/05/03 08:57:44;;;;;;;7.05;1.82;;;;;;;23.94;25.88;100847.84;1767275;81;20991;-58
2023/05/03 09:00:14;;;;;;;8.25;2.40;;;;;;;24.02;25.92;100851.50;1767164;80;21015;-59
2023/05/03 09:02:48;;;;;;;7.40;2.05;;;;;;;24.08;25.60;100857.98;1767296;80;21544;-59
2023/05/03 09:05:31;;;;;;;5.90;1.82;;;;;;;24.07;25.82;100861.91;1748867;82;21058;-58
2023/05/03 09:08:06;;;;;;;15.10;3.60;;;;;;;24.01;25.68;100853.18;1749081;82;21454;-60
2023/05/03 09:10:40;;;;;;;3.02;1.60;;;;;;;23.85;25.90;100859.85;1748989;82;22091;-60
2023/05/03 09:13:10;;;;;;;10.30;2.10;;;;;;;23.71;26.14;100853.37;1754427;81;21427;-60
2023/05/03 09:15:39;;;;;;;9.70;2.12;;;;;;;23.55;26.11;100857.22;1678299;85;21078;-57
2023/05/03 09:18:15;;;;;;;4.33;2.05;;;;;;;23.30;26.29;100859.81;1678584;85;21071;-61
2023/05/03 09:20:50;;;;;;;7.35;1.70;;;;;;;23.05;26.72;100862.75;1634303;88;21059;-60
2023/05/03 09:23:15;;;;;;;8.55;1.90;;;;;;;22.89;26.84;100858.72;1678678;85;21095;-60
2023/05/03 09:25:48;;;;;;;3.72;1.65;;;;;;;22.84;27.16;100853.09;1678330;85;21588;-59
2023/05/03 09:28:17;;;;;;;6.97;2.35;;;;;;;22.83;27.11;100855.04;1678223;85;21079;-59
2023/05/03 09:30:46;;;;;;;5.60;1.85;;;;;;;22.80;27.43;100857.50;1678006;85;21651;-60
2023/05/03 09:33:20;;;;;;;5.97;1.45;;;;;;;22.82;27.51;100877.66;1700205;82;21055;-59
2023/05/03 09:36:00;;;;;;;7.35;1.72;;;;;;;22.77;27.15;100869.49;1756585;82;21039;-62
2023/05/03 09:38:31;;;;;;;5.65;2.17;;;;;;;22.67;27.05;100863.80;1756631;82;21003;-61
2023/05/03 09:41:04;;;;;;;7.25;1.77;;;;;;;22.53;27.28;100856.12;1756813;80;21011;-60
2023/05/03 09:43:34;;;;;;;8.83;1.75;;;;;;;22.39;27.86;100855.16;1757080;82;21467;-60
2023/05/03 09:46:11;;;;;;;9.18;2.05;;;;;;;22.38;28.06;100866.60;1757117;82;21051;-59
2023/05/03 09:48:39;;;;;;;3.77;1.60;;;;;;;22.40;28.11;100866.63;1756833;82;21523;-60
2023/05/03 09:51:08;;;;;;;9.05;2.20;;;;;;;22.36;28.31;100864.08;1765085;81;21075;-60
2023/05/03 09:53:38;;;;;;;9.28;1.60;;;;;;;22.35;28.43;100858.75;1756502;82;21101;-61
2023/05/03 09:56:11;;;;;;;5.90;1.70;;;;;;;22.36;28.18;100871.05;1757106;82;21027;-58
2023/05/03 09:58:41;;;;;;;8.70;2.12;;;;;;;22.29;28.16;100856.47;1757447;80;21023;-59
2023/05/03 10:01:10;;;;;;;8.20;1.70;;;;;;;22.23;28.00;100867.84;1757103;82;21002;-58
2023/05/03 10:03:42;;;;;;;8.68;1.92;;;;;;;22.17;28.18;100863.31;1768202;80;21415;-59
2023/05/03 10:06:25;;;;;;;4.33;1.98;;;;;;;22.08;28.04;100860.13;1786293;80;21012;-59
2023/05/03 10:09:15;;;;;;;8.03;1.92;;;;;;;22.00;28.28;100854.43;1719583;83;21064;-59
2023/05/03 10:11:49;;;;;;;4.03;1.75;;;;;;;21.96;28.53;100867.77;1719426;83;21055;-59
2023/05/03 10:14:18;;;;;;;8.35;2.27;;;;;;;21.96;28.53;100862.19;1719441;83;21031;-60
2023/05/03 10:16:59;;;;;;;3.67;1.80;;;;;;;21.97;28.47;100866.11;1719786;83;21035;-59
2023/05/03 10:19:54;;;;;;;5.33;2.00;;;;;;;21.96;28.46;100869.17;1719671;83;21039;-60
2023/05/03 10:22:26;;;;;;;4.75;1.80;;;;;;;21.95;28.59;100868.88;1719443;83;20992;-59
2023/05/03 10:25:06;;;;;;;9.10;2.08;;;;;;;21.94;28.51;100867.19;1719617;83;21064;-59
2023/05/03 10:27:53;;;;;;;9.50;1.90;;;;;;;21.92;28.68;100867.45;1719561;83;21467;-59
2023/05/03 10:30:30;;;;;;;6.00;1.67;;;;;;;21.93;29.01;100857.98;1719487;83;21055;-60
2023/05/03 10:32:59;;;;;;;5.40;1.90;;;;;;;22.00;28.96;100863.36;1719584;83;21107;-60
2023/05/03 10:35:29;;;;;;;4.37;1.82;;;;;;;22.08;28.68;100850.36;1719668;83;21064;-59
2023/05/03 10:37:58;;;;;;;6.50;1.70;;;;;;;22.11;28.79;100859.63;1719661;83;21059;-60
2023/05/03 10:40:32;;;;;;;6.87;2.00;;;;;;;22.12;28.95;100863.55;1719381;83;21669;-59
2023/05/03 10:43:00;;;;;;;4.55;1.60;;;;;;;22.17;28.87;100852.99;1711674;83;21491;-59
2023/05/03 10:45:30;;;;;;;6.78;1.82;;;;;;;22.23;28.87;100846.36;1719915;83;21032;-60
2023/05/03 10:48:19;;;;;;;9.78;2.22;;;;;;;22.28;28.69;100860.37;1719509;83;21019;-59
2023/05/03 10:50:45;;;;;;;6.80;2.15;;;;;;;22.32;29.06;100844.77;1719719;83;21055;-59
2023/05/03 10:53:37;;;;;;;10.00;2.10;;;;;;;22.38;28.88;100855.44;1719657;83;21122;-59
2023/05/03 10:56:09;;;;;;;10.13;2.40;;;;;;;22.48;28.93;100844.91;1719761;83;21076;-58
2023/05/03 10:58:45;;;;;;;8.30;4.20;;;;;;;22.59;28.56;100853.66;1719681;83;21569;-60
2023/05/03 11:01:18;;;;;;;4.05;2.60;;;;;;;22.61;28.47;100847.26;1719856;83;21067;-59
2023/05/03 11:03:56;;;;;;;8.78;2.22;;;;;;;22.58;28.60;100843.59;1706522;83;21083;-57
2023/05/03 11:06:37;;;;;;;4.80;1.90;;;;;;;22.57;28.52;100839.97;1708095;84;21468;-59
2023/05/03 11:09:08;;;;;;;7.97;2.77;;;;;;;22.57;28.68;100853.09;1713061;83;21056;-58
2023/05/03 11:11:38;;;;;;;8.75;3.10;;;;;;;22.59;28.31;100848.08;1712893;84;21455;-61
2023/05/03 11:14:08;;;;;;;5.75;2.10;;;;;;;22.57;28.64;100844.70;1704431;83;21064;-60
2023/05/03 11:16:40;;;;;;;4.12;2.05;;;;;;;22.58;28.93;100853.38;1702426;84;21673;-57
2023/05/03 11:19:11;;;;;;;9.70;2.47;;;;;;;22.60;28.63;100846.41;1702699;83;21008;-60
2023/05/03 11:21:39;;;;;;;8.60;3.00;;;;;;;22.62;28.49;100843.36;1683229;84;21103;-60
2023/05/03 11:24:08;;;;;;;10.70;2.35;;;;;;;22.63;28.61;100838.89;1759061;81;21058;-58
2023/05/03 11:26:37;;;;;;;5.85;2.02;;;;;;;22.67;28.78;100840.05;1759333;81;21018;-59
2023/05/03 11:29:12;;;;;;;7.90;2.27;;;;;;;22.72;28.70;100826.67;1758436;80;20998;-60
2023/05/03 11:31:41;;;;;;;6.35;2.10;;;;;;;22.71;28.76;100841.20;1759263;80;21031;-58
2023/05/03 11:34:11;;;;;;;10.65;2.00;;;;;;;22.71;28.93;100834.21;1759245;81;21019;-59
2023/05/03 11:36:41;;;;;;;3.52;2.12;;;;;;;22.75;28.69;100838.70;1758922;80;21055;-60
2023/05/03 11:39:11;;;;;;;6.50;2.50;;;;;;;22.81;28.57;100840.50;1758857;80;21015;-57
2023/05/03 11:41:43;;;;;;;4.42;1.90;;;;;;;22.80;28.50;100840.73;1759066;81;21435;-58